Accueil
METAR-TAF:

METAR-TAF

Aéroports :

Damas, Syrie

Aéroport international de Damas

latitude: 33-25N, longitude: 036-31E, altitude: 608 m

Observation

Le bulletin a été fait il y a 37 minutes, à 18:00 UTC
Vent 9 kt de ouest/nord-ouest
Température 18°C
Humidité 45%
Pression 1015 hPa
Visibilité 10 km ou plus
Quelques nuages à une hauteur de 3000 ft

METAR: OSDI 231800Z 29009KT 9999 FEW030 18/06 Q1015

Heure: 21:37 (18:37 UTC)

Prévision

Le bulletin a été fait il y a 2 heures et 37 minutes, à 16:00 UTC
Prévision valable du 23 à 18 UTC au 24 à 24 UTC
Vent 10 kt de sud-ouest
Visibilité 10 km ou plus
pas de nuages en-dessous de 1500 mètres et pas de cumulonimbus.
Temporairement
du 24 à 12 UTC au 24 à 18 UTC
Vent 15 kt de ouest/sud-ouest avec des rafales jusqu'à 25 kt
Visibilité 10 km ou plus
Quelques nuages à une hauteur de 3000 ft

TAF: OSDI 231600Z 2318/2424 22010KT CAVOK TEMPO 2412/2418 24015G25KT 9999 FEW030

Observations et prévisions météorologiques de plus de 4000 aéroports (messages METAR et TAF).

Les stations disponibles sont représentées par des disques jaunes et rouges sur la carte.

Passer la souris dessus pour voir le nom de la station.

Cliquer dessus pour voir les observations et prévisions météorologiques.

Pour changer de carte: cliquez sur les boutons verts avec une croix noire pour zoomer, sur le bouton vert avec un tiret pour effectuer un zoom arrière, ou sur les flèches vertes pour les cartes adjacentes.


METAR-TAF: